createdAt,value
2023-04-27T00:00:45.727Z,94724.00
2023-04-27T00:01:45.726Z,94726.00
2023-04-27T00:02:45.866Z,94718.00
2023-04-27T00:03:45.855Z,94722.00
2023-04-27T00:04:45.826Z,94720.00
2023-04-27T00:05:45.728Z,94720.00
2023-04-27T00:06:45.755Z,94718.00
2023-04-27T00:07:45.697Z,94716.00
2023-04-27T00:08:45.680Z,94718.00
2023-04-27T00:09:45.704Z,94718.00
2023-04-27T00:10:45.708Z,94720.00
2023-04-27T00:11:45.676Z,94716.00
2023-04-27T00:12:45.700Z,94718.00
2023-04-27T00:13:45.721Z,94720.00
2023-04-27T00:14:45.718Z,94718.00
2023-04-27T00:15:45.737Z,94718.00
2023-04-27T00:16:45.765Z,94718.00
2023-04-27T00:17:45.753Z,94720.00
2023-04-27T00:18:45.706Z,94716.00
2023-04-27T00:19:45.774Z,94716.00
2023-04-27T00:20:45.690Z,94714.00
2023-04-27T00:21:45.709Z,94714.00
2023-04-27T00:22:45.725Z,94714.00
2023-04-27T00:23:45.752Z,94712.00
2023-04-27T00:24:45.764Z,94714.00
2023-04-27T00:25:45.731Z,94714.00
2023-04-27T00:26:45.808Z,94714.00
2023-04-27T00:27:45.704Z,94714.00
2023-04-27T00:28:45.754Z,94712.00
2023-04-27T00:29:45.706Z,94714.00
2023-04-27T00:30:45.780Z,94712.00
2023-04-27T00:31:45.810Z,94710.00
2023-04-27T00:32:45.825Z,94708.00
2023-04-27T00:33:45.716Z,94708.00
2023-04-27T00:34:45.918Z,94708.00
2023-04-27T00:35:45.754Z,94706.00
2023-04-27T00:36:45.722Z,94708.00
2023-04-27T00:37:45.750Z,94702.00
2023-04-27T00:38:45.718Z,94704.00
2023-04-27T00:39:45.759Z,94704.00
2023-04-27T00:40:45.762Z,94706.00
2023-04-27T00:41:45.741Z,94706.00
2023-04-27T00:42:45.764Z,94706.00
2023-04-27T00:43:45.796Z,94704.00
2023-04-27T00:44:45.777Z,94702.00
2023-04-27T00:45:45.786Z,94702.00
2023-04-27T00:46:45.721Z,94704.00
2023-04-27T00:47:45.821Z,94702.00
2023-04-27T00:48:45.737Z,94704.00
2023-04-27T00:49:45.727Z,94702.00
2023-04-27T00:50:45.738Z,94702.00
2023-04-27T00:51:45.711Z,94702.00
2023-04-27T00:52:45.757Z,94700.00
2023-04-27T00:53:45.720Z,94702.00
2023-04-27T00:54:45.749Z,94700.00
2023-04-27T00:55:45.712Z,94702.00
2023-04-27T00:56:45.785Z,94702.00
2023-04-27T00:57:45.726Z,94704.00
2023-04-27T00:58:45.720Z,94702.00
2023-04-27T00:59:45.755Z,94700.00
2023-04-27T01:00:45.754Z,94702.00
2023-04-27T01:01:45.789Z,94700.00
2023-04-27T01:02:45.875Z,94700.00
2023-04-27T01:03:45.918Z,94702.00
2023-04-27T01:04:45.728Z,94700.00
2023-04-27T01:05:45.717Z,94698.00
2023-04-27T01:06:45.726Z,94702.00
2023-04-27T01:07:45.717Z,94702.00
2023-04-27T01:08:45.783Z,94706.00
2023-04-27T01:09:45.764Z,94704.00
2023-04-27T01:10:45.697Z,94704.00
2023-04-27T01:11:45.701Z,94708.00
2023-04-27T01:12:45.773Z,94706.00
2023-04-27T01:13:45.707Z,94704.00
2023-04-27T01:14:45.919Z,94700.00
2023-04-27T01:15:45.734Z,94702.00
2023-04-27T01:16:45.791Z,94704.00
2023-04-27T01:17:45.767Z,94700.00
2023-04-27T01:18:45.704Z,94700.00
2023-04-27T01:19:45.747Z,94700.00
2023-04-27T01:20:45.713Z,94700.00
2023-04-27T01:21:45.704Z,94698.00
2023-04-27T01:22:45.714Z,94698.00
2023-04-27T01:23:45.713Z,94698.00
2023-04-27T01:24:45.779Z,94698.00
2023-04-27T01:25:45.739Z,94698.00
2023-04-27T01:26:45.704Z,94696.00
2023-04-27T01:27:45.720Z,94696.00
2023-04-27T01:28:45.744Z,94696.00
2023-04-27T01:29:45.787Z,94692.00
2023-04-27T01:30:45.736Z,94696.00
2023-04-27T01:31:45.818Z,94694.00
2023-04-27T01:32:45.818Z,94694.00
2023-04-27T01:33:45.736Z,94692.00
2023-04-27T01:34:45.704Z,94692.00
2023-04-27T01:35:45.720Z,94692.00
2023-04-27T01:36:45.811Z,94690.00
2023-04-27T01:37:45.780Z,94696.00
2023-04-27T01:38:45.727Z,94694.00
2023-04-27T01:39:45.750Z,94696.00
2023-04-27T01:40:45.728Z,94694.00
2023-04-27T01:41:45.749Z,94696.00
2023-04-27T01:42:45.754Z,94692.00
2023-04-27T01:43:45.743Z,94692.00
2023-04-27T01:44:45.792Z,94690.00
2023-04-27T01:45:45.760Z,94690.00
2023-04-27T01:46:45.811Z,94692.00
2023-04-27T01:47:45.776Z,94690.00
2023-04-27T01:48:45.751Z,94690.00
2023-04-27T01:49:45.785Z,94688.00
2023-04-27T01:50:45.754Z,94690.00
2023-04-27T01:51:45.748Z,94686.00
2023-04-27T01:52:45.769Z,94688.00
2023-04-27T01:53:45.761Z,94688.00
2023-04-27T01:54:45.784Z,94688.00
2023-04-27T01:55:45.725Z,94688.00
2023-04-27T01:56:45.740Z,94686.00
2023-04-27T01:57:45.731Z,94688.00
2023-04-27T01:58:45.723Z,94688.00
2023-04-27T01:59:45.716Z,94692.00
2023-04-27T02:00:45.740Z,94690.00
2023-04-27T02:01:45.779Z,94692.00
2023-04-27T02:02:45.817Z,94692.00
2023-04-27T02:03:45.885Z,94694.00
2023-04-27T02:04:45.826Z,94692.00
2023-04-27T02:05:45.734Z,94692.00
2023-04-27T02:06:45.749Z,94692.00
2023-04-27T02:07:45.736Z,94696.00
2023-04-27T02:08:45.733Z,94698.00
2023-04-27T02:09:45.729Z,94700.00
2023-04-27T02:10:45.738Z,94706.00
2023-04-27T02:11:45.790Z,94706.00
2023-04-27T02:12:45.732Z,94704.00
2023-04-27T02:13:45.746Z,94702.00
2023-04-27T02:14:45.775Z,94700.00
2023-04-27T02:15:45.768Z,94698.00
2023-04-27T02:16:45.749Z,94696.00
2023-04-27T02:17:45.818Z,94698.00
2023-04-27T02:18:45.737Z,94702.00
2023-04-27T02:19:45.738Z,94702.00
2023-04-27T02:20:45.753Z,94704.00
2023-04-27T02:21:45.713Z,94710.00
2023-04-27T02:22:45.777Z,94712.00
2023-04-27T02:23:45.743Z,94714.00
2023-04-27T02:24:45.750Z,94714.00
2023-04-27T02:25:45.746Z,94716.00
2023-04-27T02:27:45.712Z,94722.00
2023-04-27T02:28:45.741Z,94724.00
2023-04-27T02:29:45.767Z,94724.00
2023-04-27T02:30:45.722Z,94724.00
2023-04-27T02:31:45.773Z,94720.00
2023-04-27T02:32:45.788Z,94716.00
2023-04-27T02:33:45.706Z,94718.00
2023-04-27T02:34:45.749Z,94714.00
2023-04-27T02:35:45.719Z,94718.00
2023-04-27T02:36:45.743Z,94722.00
2023-04-27T02:37:45.760Z,94722.00
2023-04-27T02:38:45.728Z,94724.00
2023-04-27T02:39:45.731Z,94726.00
2023-04-27T02:40:45.703Z,94722.00
2023-04-27T02:41:45.727Z,94724.00
2023-04-27T02:42:45.697Z,94724.00
2023-04-27T02:43:45.707Z,94722.00
2023-04-27T02:44:45.732Z,94720.00
2023-04-27T02:45:45.703Z,94716.00
2023-04-27T02:46:45.780Z,94716.00
2023-04-27T02:47:45.730Z,94714.00
2023-04-27T02:48:45.658Z,94714.00
2023-04-27T02:49:45.679Z,94714.00
2023-04-27T02:50:45.673Z,94714.00
2023-04-27T02:51:45.659Z,94714.00
2023-04-27T02:52:45.681Z,94718.00
2023-04-27T02:53:45.693Z,94716.00
2023-04-27T02:54:45.670Z,94714.00
2023-04-27T02:55:45.684Z,94712.00
2023-04-27T02:56:45.683Z,94710.00
2023-04-27T02:57:45.716Z,94710.00
2023-04-27T02:58:45.679Z,94706.00
2023-04-27T02:59:45.687Z,94706.00
2023-04-27T03:00:45.795Z,94702.00
2023-04-27T03:01:45.774Z,94706.00
2023-04-27T03:02:45.841Z,94704.00
2023-04-27T03:03:45.765Z,94704.00
2023-04-27T03:04:45.845Z,94702.00
2023-04-27T03:05:45.660Z,94704.00
2023-04-27T03:06:45.670Z,94706.00
2023-04-27T03:07:46.034Z,94708.00
2023-04-27T03:08:45.688Z,94710.00
2023-04-27T03:09:45.636Z,94710.00
2023-04-27T03:10:45.642Z,94714.00
2023-04-27T03:11:45.680Z,94714.00
2023-04-27T03:12:45.633Z,94714.00
2023-04-27T03:13:45.639Z,94714.00
2023-04-27T03:14:45.684Z,94714.00
2023-04-27T03:15:45.644Z,94712.00
2023-04-27T03:16:45.695Z,94710.00
2023-04-27T03:17:45.689Z,94708.00
2023-04-27T03:18:45.648Z,94708.00
2023-04-27T03:19:45.664Z,94708.00
2023-04-27T03:20:45.677Z,94706.00
2023-04-27T03:21:45.646Z,94706.00
2023-04-27T03:22:45.652Z,94708.00
2023-04-27T03:23:45.624Z,94710.00
2023-04-27T03:24:45.645Z,94712.00
2023-04-27T03:25:45.637Z,94714.00
2023-04-27T03:26:45.617Z,94720.00
2023-04-27T03:27:45.662Z,94718.00
2023-04-27T03:28:45.625Z,94722.00
2023-04-27T03:29:45.620Z,94724.00
2023-04-27T03:30:45.594Z,94722.00
2023-04-27T03:31:45.685Z,94726.00
2023-04-27T03:32:47.574Z,94729.00
2023-04-27T03:33:45.615Z,94733.00
2023-04-27T03:34:45.636Z,94735.00
2023-04-27T03:35:45.618Z,94735.00
2023-04-27T03:36:45.620Z,94735.00
2023-04-27T03:37:45.588Z,94733.00
2023-04-27T03:38:45.613Z,94733.00
2023-04-27T03:39:45.680Z,94729.00
2023-04-27T03:40:45.644Z,94727.00
2023-04-27T03:41:45.620Z,94726.00
2023-04-27T03:42:45.588Z,94727.00
2023-04-27T03:43:45.579Z,94727.00
2023-04-27T03:44:45.623Z,94726.00
2023-04-27T03:45:45.608Z,94724.00
2023-04-27T03:46:45.574Z,94726.00
2023-04-27T03:47:46.036Z,94726.00
2023-04-27T03:48:45.593Z,94729.00
2023-04-27T03:49:45.613Z,94731.00
2023-04-27T03:50:45.626Z,94731.00
2023-04-27T03:51:45.578Z,94733.00
2023-04-27T03:52:45.586Z,94733.00
2023-04-27T03:53:45.575Z,94737.00
2023-04-27T03:54:45.596Z,94739.00
2023-04-27T03:55:45.652Z,94739.00
2023-04-27T03:56:45.561Z,94739.00
2023-04-27T03:57:45.612Z,94741.00
2023-04-27T03:58:45.554Z,94741.00
2023-04-27T03:59:45.592Z,94743.00
2023-04-27T04:00:45.620Z,94745.00
2023-04-27T04:01:45.596Z,94747.00
2023-04-27T04:02:45.667Z,94749.00
2023-04-27T04:03:45.669Z,94751.00
2023-04-27T04:04:45.659Z,94753.00
2023-04-27T04:05:45.603Z,94757.00
2023-04-27T04:06:45.564Z,94763.00
2023-04-27T04:07:45.543Z,94765.00
2023-04-27T04:08:45.561Z,94765.00
2023-04-27T04:09:45.555Z,94765.00
2023-04-27T04:10:46.414Z,94765.00
2023-04-27T04:11:45.562Z,94763.00
2023-04-27T04:12:45.549Z,94763.00
2023-04-27T04:13:45.542Z,94765.00
2023-04-27T04:14:45.519Z,94765.00
2023-04-27T04:15:45.564Z,94763.00
2023-04-27T04:16:45.523Z,94765.00
2023-04-27T04:17:45.549Z,94767.00
2023-04-27T04:18:45.586Z,94765.00
2023-04-27T04:19:45.524Z,94769.00
2023-04-27T04:20:45.932Z,94769.00
2023-04-27T04:21:45.525Z,94771.00
2023-04-27T04:22:45.543Z,94773.00
2023-04-27T04:23:45.527Z,94776.00
2023-04-27T04:24:45.539Z,94774.00
2023-04-27T04:25:45.534Z,94780.00
2023-04-27T04:26:45.539Z,94782.00
2023-04-27T04:27:46.427Z,94782.00
2023-04-27T04:28:45.508Z,94784.00
2023-04-27T04:29:45.521Z,94786.00
2023-04-27T04:30:45.536Z,94784.00
2023-04-27T04:31:45.580Z,94788.00
2023-04-27T04:32:45.589Z,94788.00
2023-04-27T04:33:45.509Z,94788.00
2023-04-27T04:34:45.481Z,94788.00
2023-04-27T04:35:45.503Z,94790.00
2023-04-27T04:36:45.493Z,94788.00
2023-04-27T04:37:45.531Z,94792.00
2023-04-27T04:38:45.482Z,94792.00
2023-04-27T04:39:45.517Z,94794.00
2023-04-27T04:40:46.126Z,94794.00
2023-04-27T04:41:45.512Z,94798.00
2023-04-27T04:42:45.520Z,94798.00
2023-04-27T04:43:45.464Z,94800.00
2023-04-27T04:44:45.510Z,94804.00
2023-04-27T04:45:45.480Z,94808.00
2023-04-27T04:46:45.488Z,94806.00
2023-04-27T04:47:45.531Z,94810.00
2023-04-27T04:48:45.464Z,94814.00
2023-04-27T04:49:45.505Z,94814.00
2023-04-27T04:50:45.954Z,94816.00
2023-04-27T04:51:45.470Z,94816.00
2023-04-27T04:52:45.470Z,94814.00
2023-04-27T04:53:45.457Z,94816.00
2023-04-27T04:54:45.444Z,94816.00
2023-04-27T04:55:45.463Z,94816.00
2023-04-27T04:56:45.464Z,94818.00
2023-04-27T04:57:45.505Z,94820.00
2023-04-27T04:58:45.442Z,94822.00
2023-04-27T04:59:45.448Z,94824.00
2023-04-27T05:00:45.433Z,94822.00
2023-04-27T05:01:45.485Z,94822.00
2023-04-27T05:02:45.511Z,94820.00
2023-04-27T05:03:45.545Z,94820.00
2023-04-27T05:04:45.561Z,94826.00
2023-04-27T05:05:45.445Z,94826.00
2023-04-27T05:06:45.441Z,94829.00
2023-04-27T05:07:45.470Z,94831.00
2023-04-27T05:08:45.450Z,94831.00
2023-04-27T05:09:45.459Z,94831.00
2023-04-27T05:10:45.991Z,94829.00
2023-04-27T05:11:45.441Z,94837.00
2023-04-27T05:12:45.435Z,94837.00
2023-04-27T05:13:45.490Z,94841.00
2023-04-27T05:14:45.429Z,94843.00
2023-04-27T05:15:45.471Z,94839.00
2023-04-27T05:16:45.424Z,94837.00
2023-04-27T05:17:45.501Z,94837.00
2023-04-27T05:18:45.457Z,94837.00
2023-04-27T05:19:45.436Z,94839.00
2023-04-27T05:20:45.462Z,94839.00
2023-04-27T05:21:45.477Z,94839.00
2023-04-27T05:22:45.449Z,94839.00
2023-04-27T05:23:45.500Z,94845.00
2023-04-27T05:24:45.468Z,94847.00
2023-04-27T05:25:45.445Z,94847.00
2023-04-27T05:26:45.482Z,94845.00
2023-04-27T05:27:45.544Z,94847.00
2023-04-27T05:28:45.435Z,94845.00
2023-04-27T05:29:45.553Z,94847.00
2023-04-27T05:30:45.446Z,94845.00
2023-04-27T05:31:45.543Z,94851.00
2023-04-27T05:32:45.469Z,94851.00
2023-04-27T05:33:45.455Z,94851.00
2023-04-27T05:34:47.337Z,94851.00
2023-04-27T05:35:45.404Z,94855.00
2023-04-27T05:36:45.406Z,94851.00
2023-04-27T05:37:45.421Z,94859.00
2023-04-27T05:38:45.401Z,94859.00
2023-04-27T05:39:45.381Z,94863.00
2023-04-27T05:40:45.493Z,94859.00
2023-04-27T05:41:45.424Z,94859.00
2023-04-27T05:42:45.674Z,94857.00
2023-04-27T05:43:45.351Z,94855.00
2023-04-27T05:44:45.359Z,94859.00
2023-04-27T05:45:45.364Z,94857.00
2023-04-27T05:46:45.354Z,94857.00
2023-04-27T05:47:45.355Z,94859.00
2023-04-27T05:48:45.375Z,94859.00
2023-04-27T05:49:45.357Z,94861.00
2023-04-27T05:50:45.340Z,94863.00
2023-04-27T05:51:45.305Z,94867.00
2023-04-27T05:52:47.005Z,94867.00
2023-04-27T05:53:45.321Z,94861.00
2023-04-27T05:54:45.275Z,94863.00
2023-04-27T05:55:45.269Z,94861.00
2023-04-27T05:56:45.376Z,94861.00
2023-04-27T05:57:47.701Z,94859.00
2023-04-27T05:58:45.275Z,94861.00
2023-04-27T05:59:45.346Z,94859.00
2023-04-27T06:00:45.248Z,94859.00
2023-04-27T06:01:45.266Z,94857.00
2023-04-27T06:02:45.400Z,94853.00
2023-04-27T06:03:45.581Z,94855.00
2023-04-27T06:04:45.276Z,94861.00
2023-04-27T06:05:45.282Z,94859.00
2023-04-27T06:06:45.202Z,94857.00
2023-04-27T06:07:45.206Z,94857.00
2023-04-27T06:08:45.219Z,94855.00
2023-04-27T06:09:45.179Z,94861.00
2023-04-27T06:10:45.249Z,94861.00
2023-04-27T06:11:45.159Z,94865.00
2023-04-27T06:12:46.393Z,94865.00
2023-04-27T06:13:45.148Z,94865.00
2023-04-27T06:14:45.142Z,94863.00
2023-04-27T06:15:45.238Z,94865.00
2023-04-27T06:16:45.195Z,94867.00
2023-04-27T06:17:45.154Z,94867.00
2023-04-27T06:18:45.138Z,94867.00
2023-04-27T06:19:45.181Z,94867.00
2023-04-27T06:20:45.547Z,94873.00
2023-04-27T06:21:45.134Z,94871.00
2023-04-27T06:22:45.103Z,94871.00
2023-04-27T06:23:45.100Z,94873.00
2023-04-27T06:24:45.102Z,94876.00
2023-04-27T06:25:45.163Z,94875.00
2023-04-27T06:26:45.082Z,94875.00
2023-04-27T06:27:45.096Z,94873.00
2023-04-27T06:28:45.075Z,94873.00
2023-04-27T06:29:45.059Z,94873.00
2023-04-27T06:30:45.054Z,94875.00
2023-04-27T06:31:45.118Z,94873.00
2023-04-27T06:32:45.107Z,94875.00
2023-04-27T06:33:45.054Z,94876.00
2023-04-27T06:34:45.088Z,94875.00
2023-04-27T06:35:47.054Z,94880.00
2023-04-27T06:36:45.246Z,94878.00
2023-04-27T06:37:45.498Z,94880.00
2023-04-27T06:38:45.139Z,94880.00
2023-04-27T06:39:46.743Z,94880.00
2023-04-27T06:40:45.221Z,94880.00
2023-04-27T06:41:45.231Z,94878.00
2023-04-27T06:42:45.536Z,94878.00
2023-04-27T06:43:45.271Z,94880.00
2023-04-27T06:44:45.295Z,94882.00
2023-04-27T06:45:45.300Z,94880.00
2023-04-27T06:46:45.310Z,94880.00
2023-04-27T06:47:45.346Z,94880.00
2023-04-27T06:48:45.311Z,94882.00
2023-04-27T06:49:45.309Z,94882.00
2023-04-27T06:50:45.490Z,94882.00
2023-04-27T06:51:45.349Z,94884.00
2023-04-27T06:52:45.341Z,94886.00
2023-04-27T06:53:45.322Z,94884.00
2023-04-27T06:54:45.380Z,94884.00
2023-04-27T06:55:46.920Z,94884.00
2023-04-27T06:56:45.313Z,94886.00
2023-04-27T06:57:45.306Z,94884.00
2023-04-27T06:58:45.310Z,94888.00
2023-04-27T06:59:45.286Z,94890.00
2023-04-27T07:00:45.303Z,94888.00
2023-04-27T07:01:45.288Z,94888.00
2023-04-27T07:02:45.436Z,94890.00
2023-04-27T07:03:45.390Z,94892.00
2023-04-27T07:04:45.347Z,94892.00
2023-04-27T07:05:45.327Z,94890.00
2023-04-27T07:06:45.245Z,94892.00
2023-04-27T07:07:45.611Z,94890.00
2023-04-27T07:08:45.300Z,94892.00
2023-04-27T07:09:45.230Z,94894.00
2023-04-27T07:10:45.214Z,94892.00
2023-04-27T07:11:45.211Z,94896.00
2023-04-27T07:12:45.213Z,94894.00
2023-04-27T07:13:45.538Z,94894.00
2023-04-27T07:14:45.211Z,94896.00
2023-04-27T07:15:45.249Z,94906.00
2023-04-27T07:16:45.195Z,94906.00
2023-04-27T07:17:45.273Z,94896.00
2023-04-27T07:18:45.482Z,94908.00
2023-04-27T07:19:45.203Z,94908.00
2023-04-27T07:20:45.189Z,94898.00
2023-04-27T07:21:45.240Z,94898.00
2023-04-27T07:22:45.187Z,94896.00
2023-04-27T07:23:45.161Z,94898.00
2023-04-27T07:24:45.135Z,94898.00
2023-04-27T07:25:46.095Z,94894.00
2023-04-27T07:26:45.165Z,94894.00
2023-04-27T07:27:45.137Z,94896.00
2023-04-27T07:28:45.189Z,94896.00
2023-04-27T07:29:45.135Z,94898.00
2023-04-27T07:30:45.186Z,94908.00
2023-04-27T07:31:45.124Z,94906.00
2023-04-27T07:32:46.056Z,94908.00
2023-04-27T07:33:45.145Z,94910.00
2023-04-27T07:34:53.653Z,94908.00
2023-04-27T07:35:46.502Z,94912.00
2023-04-27T07:36:45.129Z,94908.00
2023-04-27T07:37:45.222Z,94908.00
2023-04-27T07:38:45.510Z,94906.00
2023-04-27T07:39:45.094Z,94908.00
2023-04-27T07:40:46.066Z,94910.00
2023-04-27T07:41:45.112Z,94910.00
2023-04-27T07:42:45.067Z,94910.00
2023-04-27T07:43:45.034Z,94912.00
2023-04-27T07:44:45.049Z,94910.00
2023-04-27T07:45:45.181Z,94910.00
2023-04-27T07:46:45.135Z,94910.00
2023-04-27T07:47:45.220Z,94912.00
2023-04-27T07:48:47.025Z,94914.00
2023-04-27T07:49:45.211Z,94914.00
2023-04-27T07:50:45.504Z,94912.00
2023-04-27T07:51:45.185Z,94910.00
2023-04-27T07:52:45.236Z,94912.00
2023-04-27T07:53:47.257Z,94914.00
2023-04-27T07:54:45.289Z,94910.00
2023-04-27T07:55:45.514Z,94914.00
2023-04-27T07:56:45.395Z,94914.00
2023-04-27T07:57:45.296Z,94916.00
2023-04-27T07:58:45.350Z,94918.00
2023-04-27T07:59:45.410Z,94918.00
2023-04-27T08:00:45.382Z,94920.00
2023-04-27T08:01:45.415Z,94920.00
2023-04-27T08:02:46.289Z,94921.00
2023-04-27T08:03:45.755Z,94921.00
2023-04-27T08:04:45.567Z,94921.00
2023-04-27T08:05:45.600Z,94923.00
2023-04-27T08:06:45.904Z,94923.00
2023-04-27T08:07:45.845Z,94920.00
2023-04-27T08:08:45.429Z,94920.00
2023-04-27T08:09:45.498Z,94921.00
2023-04-27T08:10:45.491Z,94920.00
2023-04-27T08:11:45.525Z,94923.00
2023-04-27T08:12:45.529Z,94923.00
2023-04-27T08:13:45.579Z,94921.00
2023-04-27T08:14:45.592Z,94923.00
2023-04-27T08:15:45.649Z,94925.00
2023-04-27T08:16:45.681Z,94923.00
2023-04-27T08:17:45.687Z,94923.00
2023-04-27T08:18:45.715Z,94921.00
2023-04-27T08:19:45.732Z,94921.00
2023-04-27T08:20:45.770Z,94920.00
2023-04-27T08:21:45.930Z,94921.00
2023-04-27T08:22:45.820Z,94920.00
2023-04-27T08:23:45.862Z,94920.00
2023-04-27T08:24:45.850Z,94923.00
2023-04-27T08:25:45.986Z,94923.00
2023-04-27T08:26:45.898Z,94923.00
2023-04-27T08:27:46.014Z,94929.00
2023-04-27T08:28:46.039Z,94925.00
2023-04-27T08:29:45.942Z,94927.00
2023-04-27T08:30:46.005Z,94925.00
2023-04-27T08:31:45.997Z,94927.00
2023-04-27T08:32:46.123Z,94921.00
2023-04-27T08:33:46.012Z,94921.00
2023-04-27T08:34:46.020Z,94920.00
2023-04-27T08:35:46.583Z,94916.00
2023-04-27T08:36:46.065Z,94920.00
2023-04-27T08:37:46.067Z,94916.00
2023-04-27T08:38:46.636Z,94916.00
2023-04-27T08:39:46.105Z,94916.00
2023-04-27T08:40:46.143Z,94914.00
2023-04-27T08:41:46.237Z,94914.00
2023-04-27T08:42:46.148Z,94914.00
2023-04-27T08:43:46.166Z,94914.00
2023-04-27T08:44:46.218Z,94912.00
2023-04-27T08:45:46.235Z,94918.00
2023-04-27T08:46:46.327Z,94918.00
2023-04-27T08:47:46.254Z,94918.00
2023-04-27T08:48:46.306Z,94916.00
2023-04-27T08:49:46.253Z,94914.00
2023-04-27T08:50:46.284Z,94916.00
2023-04-27T08:51:46.289Z,94916.00
2023-04-27T08:52:46.314Z,94916.00
2023-04-27T08:53:46.555Z,94910.00
2023-04-27T08:54:46.357Z,94910.00
2023-04-27T08:55:46.364Z,94910.00
2023-04-27T08:56:46.418Z,94910.00
2023-04-27T08:57:46.429Z,94914.00
2023-04-27T08:58:46.416Z,94914.00
2023-04-27T08:59:46.489Z,94912.00
2023-04-27T09:00:46.531Z,94912.00
2023-04-27T09:01:46.537Z,94910.00
2023-04-27T09:02:46.623Z,94912.00
2023-04-27T09:03:46.841Z,94910.00
2023-04-27T09:04:46.610Z,94912.00
2023-04-27T09:05:56.486Z,94910.00
2023-04-27T09:06:47.563Z,94914.00
2023-04-27T09:07:46.497Z,94914.00
2023-04-27T09:08:46.533Z,94912.00
2023-04-27T09:09:46.525Z,94912.00
2023-04-27T09:10:46.493Z,94908.00
2023-04-27T09:11:46.501Z,94912.00
2023-04-27T09:12:46.525Z,94912.00
2023-04-27T09:13:46.475Z,94910.00
2023-04-27T09:14:46.465Z,94908.00
2023-04-27T09:15:48.574Z,94898.00
2023-04-27T09:16:46.630Z,94898.00
2023-04-27T09:17:46.473Z,94894.00
2023-04-27T09:18:46.451Z,94892.00
2023-04-27T09:19:46.439Z,94894.00
2023-04-27T09:20:46.417Z,94894.00
2023-04-27T09:21:47.743Z,94892.00
2023-04-27T09:22:46.421Z,94890.00
2023-04-27T09:23:46.405Z,94886.00
2023-04-27T09:24:46.402Z,94888.00
2023-04-27T09:25:46.395Z,94882.00
2023-04-27T09:26:46.372Z,94884.00
2023-04-27T09:27:46.384Z,94884.00
2023-04-27T09:28:46.382Z,94884.00
2023-04-27T09:29:46.378Z,94882.00
2023-04-27T09:30:46.377Z,94882.00
2023-04-27T09:31:46.430Z,94886.00
2023-04-27T09:32:46.442Z,94888.00
2023-04-27T09:33:46.398Z,94884.00
2023-04-27T09:34:46.433Z,94880.00
2023-04-27T09:35:46.373Z,94880.00
2023-04-27T09:36:46.462Z,94878.00
2023-04-27T09:37:47.385Z,94875.00
2023-04-27T09:38:46.381Z,94876.00
2023-04-27T09:39:46.374Z,94875.00
2023-04-27T09:40:46.356Z,94873.00
2023-04-27T09:41:46.354Z,94873.00
2023-04-27T09:42:46.358Z,94871.00
2023-04-27T09:43:46.351Z,94865.00
2023-04-27T09:44:46.360Z,94867.00
2023-04-27T09:45:46.378Z,94867.00
2023-04-27T09:46:46.375Z,94867.00
2023-04-27T09:47:46.453Z,94869.00
2023-04-27T09:48:46.442Z,94867.00
2023-04-27T09:49:46.468Z,94867.00
2023-04-27T09:50:46.507Z,94865.00
2023-04-27T09:51:46.503Z,94859.00
2023-04-27T09:52:46.527Z,94857.00
2023-04-27T09:53:46.547Z,94853.00
2023-04-27T09:54:46.594Z,94855.00
2023-04-27T09:55:46.613Z,94851.00
2023-04-27T09:56:46.650Z,94851.00
2023-04-27T09:57:46.698Z,94845.00
2023-04-27T09:58:46.752Z,94845.00
2023-04-27T09:59:46.759Z,94847.00
2023-04-27T10:00:46.872Z,94845.00
2023-04-27T10:01:46.923Z,94845.00
2023-04-27T10:02:53.253Z,94841.00
2023-04-27T10:03:48.026Z,94839.00
2023-04-27T10:04:46.952Z,94835.00
2023-04-27T10:05:46.895Z,94831.00
2023-04-27T10:06:46.894Z,94831.00
2023-04-27T10:07:46.918Z,94826.00
2023-04-27T10:08:46.871Z,94826.00
2023-04-27T10:09:46.878Z,94828.00
2023-04-27T10:10:46.841Z,94828.00
2023-04-27T10:11:46.895Z,94828.00
2023-04-27T10:12:47.006Z,94826.00
2023-04-27T10:13:46.976Z,94824.00
2023-04-27T10:14:47.047Z,94818.00
2023-04-27T10:15:47.092Z,94820.00
2023-04-27T10:16:47.263Z,94816.00
2023-04-27T10:17:47.243Z,94814.00
2023-04-27T10:18:47.254Z,94812.00
2023-04-27T10:19:47.293Z,94810.00
2023-04-27T10:20:47.339Z,94810.00
2023-04-27T10:21:47.428Z,94816.00
2023-04-27T10:22:47.442Z,94814.00
2023-04-27T10:23:47.502Z,94820.00
2023-04-27T10:24:47.556Z,94814.00
2023-04-27T10:25:47.569Z,94818.00
2023-04-27T10:26:47.619Z,94814.00
2023-04-27T10:27:47.669Z,94810.00
2023-04-27T10:28:47.740Z,94808.00
2023-04-27T10:29:48.075Z,94806.00
2023-04-27T10:30:47.846Z,94806.00
2023-04-27T10:31:47.859Z,94806.00
2023-04-27T10:32:47.918Z,94802.00
2023-04-27T10:33:47.960Z,94806.00
2023-04-27T10:34:48.089Z,94802.00
2023-04-27T10:35:48.005Z,94806.00
2023-04-27T10:36:48.080Z,94800.00
2023-04-27T10:37:48.098Z,94796.00
2023-04-27T10:38:48.172Z,94796.00
2023-04-27T10:39:49.853Z,94798.00
2023-04-27T10:40:48.221Z,94798.00
2023-04-27T10:41:48.570Z,94794.00
2023-04-27T10:42:48.286Z,94794.00
2023-04-27T10:43:48.318Z,94792.00
2023-04-27T10:44:48.368Z,94790.00
2023-04-27T10:45:48.442Z,94790.00
2023-04-27T10:46:48.399Z,94790.00
2023-04-27T10:47:48.524Z,94786.00
2023-04-27T10:48:48.484Z,94782.00
2023-04-27T10:49:48.520Z,94784.00
2023-04-27T10:50:48.537Z,94780.00
2023-04-27T10:51:48.595Z,94776.00
2023-04-27T10:52:48.589Z,94771.00
2023-04-27T10:53:48.604Z,94771.00
2023-04-27T10:54:48.654Z,94771.00
2023-04-27T10:55:48.654Z,94771.00
2023-04-27T10:56:48.750Z,94767.00
2023-04-27T10:57:48.723Z,94767.00
2023-04-27T10:58:49.604Z,94767.00
2023-04-27T10:59:48.789Z,94767.00
2023-04-27T11:00:48.814Z,94765.00
2023-04-27T11:01:48.862Z,94763.00
2023-04-27T11:02:48.926Z,94763.00
2023-04-27T11:03:49.015Z,94761.00
2023-04-27T11:04:49.085Z,94759.00
2023-04-27T11:05:49.021Z,94759.00
2023-04-27T11:06:49.022Z,94757.00
2023-04-27T11:07:49.010Z,94757.00
2023-04-27T11:08:49.037Z,94757.00
2023-04-27T11:09:49.070Z,94757.00
2023-04-27T11:10:49.230Z,94757.00
2023-04-27T11:11:49.108Z,94759.00
2023-04-27T11:12:49.178Z,94757.00
2023-04-27T11:13:49.171Z,94759.00
2023-04-27T11:14:49.212Z,94757.00
2023-04-27T11:15:49.270Z,94761.00
2023-04-27T11:16:49.347Z,94761.00
2023-04-27T11:17:49.509Z,94759.00
2023-04-27T11:18:49.339Z,94759.00
2023-04-27T11:19:49.403Z,94759.00
2023-04-27T11:20:49.424Z,94761.00
2023-04-27T11:21:50.088Z,94763.00
2023-04-27T11:22:49.487Z,94763.00
2023-04-27T11:23:50.105Z,94765.00
2023-04-27T11:24:50.090Z,94763.00
2023-04-27T11:25:49.622Z,94763.00
2023-04-27T11:26:50.123Z,94759.00
2023-04-27T11:27:50.594Z,94761.00
2023-04-27T11:28:49.692Z,94759.00
2023-04-27T11:29:50.140Z,94757.00
2023-04-27T11:30:49.788Z,94757.00
2023-04-27T11:31:50.114Z,94755.00
2023-04-27T11:32:49.859Z,94753.00
2023-04-27T11:33:49.858Z,94751.00
2023-04-27T11:34:49.898Z,94751.00
2023-04-27T11:35:49.912Z,94749.00
2023-04-27T11:36:49.962Z,94751.00
2023-04-27T11:37:49.982Z,94749.00
2023-04-27T11:38:50.139Z,94747.00
2023-04-27T11:39:50.062Z,94747.00
2023-04-27T11:40:50.073Z,94745.00
2023-04-27T11:41:50.166Z,94743.00
2023-04-27T11:42:50.117Z,94745.00
2023-04-27T11:43:50.132Z,94745.00
2023-04-27T11:44:50.153Z,94745.00
2023-04-27T11:45:50.209Z,94745.00